sensor_id;sensor_type;location;lat;lon;timestamp;P1;durP1;ratioP1;P2;durP2;ratioP2
40637;SDS011;26336;44.696;10.622;2024-02-14T00:01:46;32.93;;;21.90;;
40637;SDS011;26336;44.696;10.622;2024-02-14T00:04:50;32.07;;;20.90;;
40637;SDS011;26336;44.696;10.622;2024-02-14T00:07:54;31.63;;;20.60;;
40637;SDS011;26336;44.696;10.622;2024-02-14T00:10:58;31.63;;;21.13;;
40637;SDS011;26336;44.696;10.622;2024-02-14T00:14:03;30.57;;;20.80;;
40637;SDS011;26336;44.696;10.622;2024-02-14T00:17:07;33.63;;;22.00;;
40637;SDS011;26336;44.696;10.622;2024-02-14T00:20:13;35.73;;;24.13;;
40637;SDS011;26336;44.696;10.622;2024-02-14T00:23:26;37.10;;;23.27;;
40637;SDS011;26336;44.696;10.622;2024-02-14T00:26:31;34.77;;;22.90;;
40637;SDS011;26336;44.696;10.622;2024-02-14T00:29:34;36.70;;;24.07;;
40637;SDS011;26336;44.696;10.622;2024-02-14T00:32:38;35.80;;;23.23;;
40637;SDS011;26336;44.696;10.622;2024-02-14T00:35:43;36.93;;;23.23;;
40637;SDS011;26336;44.696;10.622;2024-02-14T00:38:51;37.83;;;24.13;;
40637;SDS011;26336;44.696;10.622;2024-02-14T00:41:54;32.03;;;22.27;;
40637;SDS011;26336;44.696;10.622;2024-02-14T00:44:59;31.83;;;21.33;;
40637;SDS011;26336;44.696;10.622;2024-02-14T00:48:03;35.83;;;21.63;;
40637;SDS011;26336;44.696;10.622;2024-02-14T00:51:07;33.23;;;22.77;;
40637;SDS011;26336;44.696;10.622;2024-02-14T00:54:11;31.30;;;21.07;;
40637;SDS011;26336;44.696;10.622;2024-02-14T00:57:17;35.67;;;22.37;;
40637;SDS011;26336;44.696;10.622;2024-02-14T01:00:22;34.00;;;22.53;;
40637;SDS011;26336;44.696;10.622;2024-02-14T01:03:25;31.30;;;21.63;;
40637;SDS011;26336;44.696;10.622;2024-02-14T01:06:30;36.40;;;23.43;;
40637;SDS011;26336;44.696;10.622;2024-02-14T01:09:34;34.73;;;22.30;;
40637;SDS011;26336;44.696;10.622;2024-02-14T01:12:39;29.93;;;20.90;;
40637;SDS011;26336;44.696;10.622;2024-02-14T01:15:43;29.50;;;20.63;;
40637;SDS011;26336;44.696;10.622;2024-02-14T01:18:47;32.00;;;20.77;;
40637;SDS011;26336;44.696;10.622;2024-02-14T01:21:51;32.97;;;20.83;;
40637;SDS011;26336;44.696;10.622;2024-02-14T01:24:55;31.60;;;21.10;;
40637;SDS011;26336;44.696;10.622;2024-02-14T01:27:59;32.57;;;21.93;;
40637;SDS011;26336;44.696;10.622;2024-02-14T01:31:03;30.50;;;20.20;;
40637;SDS011;26336;44.696;10.622;2024-02-14T01:34:07;33.57;;;22.50;;
40637;SDS011;26336;44.696;10.622;2024-02-14T01:37:11;29.80;;;20.00;;
40637;SDS011;26336;44.696;10.622;2024-02-14T01:40:15;29.80;;;19.83;;
40637;SDS011;26336;44.696;10.622;2024-02-14T01:43:30;35.70;;;20.47;;
40637;SDS011;26336;44.696;10.622;2024-02-14T01:46:34;36.67;;;22.13;;
40637;SDS011;26336;44.696;10.622;2024-02-14T01:49:38;34.03;;;20.90;;
40637;SDS011;26336;44.696;10.622;2024-02-14T01:52:43;29.43;;;20.30;;
40637;SDS011;26336;44.696;10.622;2024-02-14T01:55:47;34.13;;;20.17;;
40637;SDS011;26336;44.696;10.622;2024-02-14T01:58:51;31.70;;;20.33;;
40637;SDS011;26336;44.696;10.622;2024-02-14T02:01:56;34.97;;;20.73;;
40637;SDS011;26336;44.696;10.622;2024-02-14T02:05:01;31.93;;;20.97;;
40637;SDS011;26336;44.696;10.622;2024-02-14T02:08:07;31.73;;;21.27;;
40637;SDS011;26336;44.696;10.622;2024-02-14T02:11:13;34.47;;;21.07;;
40637;SDS011;26336;44.696;10.622;2024-02-14T02:14:37;37.70;;;23.67;;
40637;SDS011;26336;44.696;10.622;2024-02-14T02:18:03;34.20;;;22.07;;
40637;SDS011;26336;44.696;10.622;2024-02-14T02:21:29;30.43;;;21.03;;
40637;SDS011;26336;44.696;10.622;2024-02-14T02:24:33;33.47;;;20.10;;
40637;SDS011;26336;44.696;10.622;2024-02-14T02:27:37;30.63;;;20.43;;
40637;SDS011;26336;44.696;10.622;2024-02-14T02:31:01;31.50;;;19.50;;
40637;SDS011;26336;44.696;10.622;2024-02-14T02:34:05;29.93;;;20.17;;
40637;SDS011;26336;44.696;10.622;2024-02-14T02:37:09;27.67;;;19.57;;
40637;SDS011;26336;44.696;10.622;2024-02-14T02:40:41;28.20;;;18.57;;
40637;SDS011;26336;44.696;10.622;2024-02-14T02:44:05;31.17;;;20.57;;
40637;SDS011;26336;44.696;10.622;2024-02-14T02:47:41;31.80;;;21.67;;
40637;SDS011;26336;44.696;10.622;2024-02-14T02:51:05;32.70;;;22.03;;
40637;SDS011;26336;44.696;10.622;2024-02-14T02:54:45;32.10;;;21.63;;
40637;SDS011;26336;44.696;10.622;2024-02-14T02:58:00;32.77;;;22.33;;
40637;SDS011;26336;44.696;10.622;2024-02-14T03:01:08;30.40;;;20.40;;
40637;SDS011;26336;44.696;10.622;2024-02-14T03:08:02;28.13;;;17.80;;
40637;SDS011;26336;44.696;10.622;2024-02-14T03:11:27;32.03;;;19.77;;
40637;SDS011;26336;44.696;10.622;2024-02-14T03:14:51;29.77;;;19.80;;
40637;SDS011;26336;44.696;10.622;2024-02-14T03:18:09;29.63;;;20.17;;
40637;SDS011;26336;44.696;10.622;2024-02-14T03:21:13;31.07;;;20.03;;
40637;SDS011;26336;44.696;10.622;2024-02-14T03:24:17;28.93;;;20.10;;
40637;SDS011;26336;44.696;10.622;2024-02-14T03:27:21;29.57;;;19.77;;
40637;SDS011;26336;44.696;10.622;2024-02-14T03:30:27;32.60;;;20.83;;
40637;SDS011;26336;44.696;10.622;2024-02-14T03:33:32;41.40;;;22.63;;
40637;SDS011;26336;44.696;10.622;2024-02-14T03:36:37;31.73;;;21.00;;
40637;SDS011;26336;44.696;10.622;2024-02-14T03:39:41;30.07;;;18.93;;
40637;SDS011;26336;44.696;10.622;2024-02-14T03:42:45;26.23;;;18.67;;
40637;SDS011;26336;44.696;10.622;2024-02-14T03:45:49;27.73;;;17.57;;
40637;SDS011;26336;44.696;10.622;2024-02-14T03:48:55;25.50;;;17.33;;
40637;SDS011;26336;44.696;10.622;2024-02-14T03:51:58;25.20;;;17.87;;
40637;SDS011;26336;44.696;10.622;2024-02-14T03:55:05;27.63;;;17.70;;
40637;SDS011;26336;44.696;10.622;2024-02-14T03:58:10;29.00;;;18.47;;
40637;SDS011;26336;44.696;10.622;2024-02-14T04:01:14;24.43;;;17.10;;
40637;SDS011;26336;44.696;10.622;2024-02-14T04:04:19;28.20;;;17.30;;
40637;SDS011;26336;44.696;10.622;2024-02-14T04:07:23;28.13;;;18.37;;
40637;SDS011;26336;44.696;10.622;2024-02-14T04:10:27;24.40;;;17.17;;
40637;SDS011;26336;44.696;10.622;2024-02-14T04:13:31;26.27;;;16.80;;
40637;SDS011;26336;44.696;10.622;2024-02-14T04:16:35;26.27;;;17.83;;
40637;SDS011;26336;44.696;10.622;2024-02-14T04:19:39;26.80;;;18.27;;
40637;SDS011;26336;44.696;10.622;2024-02-14T04:22:43;23.77;;;16.90;;
40637;SDS011;26336;44.696;10.622;2024-02-14T04:25:47;27.23;;;17.37;;
40637;SDS011;26336;44.696;10.622;2024-02-14T04:28:51;27.23;;;17.30;;
40637;SDS011;26336;44.696;10.622;2024-02-14T04:31:56;24.67;;;17.20;;
40637;SDS011;26336;44.696;10.622;2024-02-14T04:35:00;24.80;;;17.57;;
40637;SDS011;26336;44.696;10.622;2024-02-14T04:38:05;24.53;;;17.00;;
40637;SDS011;26336;44.696;10.622;2024-02-14T04:41:09;25.83;;;17.30;;
40637;SDS011;26336;44.696;10.622;2024-02-14T04:44:13;25.73;;;17.23;;
40637;SDS011;26336;44.696;10.622;2024-02-14T04:47:17;24.70;;;16.73;;
40637;SDS011;26336;44.696;10.622;2024-02-14T04:50:21;27.83;;;18.13;;
40637;SDS011;26336;44.696;10.622;2024-02-14T04:53:25;23.37;;;16.47;;
40637;SDS011;26336;44.696;10.622;2024-02-14T04:56:29;25.23;;;16.30;;
40637;SDS011;26336;44.696;10.622;2024-02-14T04:59:33;26.17;;;16.50;;
40637;SDS011;26336;44.696;10.622;2024-02-14T05:02:37;28.30;;;17.50;;
40637;SDS011;26336;44.696;10.622;2024-02-14T05:05:41;26.17;;;17.57;;
40637;SDS011;26336;44.696;10.622;2024-02-14T05:08:45;25.30;;;17.13;;
40637;SDS011;26336;44.696;10.622;2024-02-14T05:11:49;25.23;;;17.43;;
40637;SDS011;26336;44.696;10.622;2024-02-14T05:14:53;24.30;;;17.30;;
40637;SDS011;26336;44.696;10.622;2024-02-14T05:17:57;25.30;;;17.53;;
40637;SDS011;26336;44.696;10.622;2024-02-14T05:21:01;28.37;;;17.93;;
40637;SDS011;26336;44.696;10.622;2024-02-14T05:24:07;25.20;;;16.50;;
40637;SDS011;26336;44.696;10.622;2024-02-14T05:27:11;27.17;;;17.50;;
40637;SDS011;26336;44.696;10.622;2024-02-14T05:30:15;27.37;;;17.53;;
40637;SDS011;26336;44.696;10.622;2024-02-14T05:33:27;31.30;;;17.47;;
40637;SDS011;26336;44.696;10.622;2024-02-14T05:36:31;31.37;;;16.90;;
40637;SDS011;26336;44.696;10.622;2024-02-14T05:39:35;25.13;;;17.47;;
40637;SDS011;26336;44.696;10.622;2024-02-14T05:42:38;25.47;;;17.43;;
40637;SDS011;26336;44.696;10.622;2024-02-14T05:45:42;26.53;;;17.80;;
40637;SDS011;26336;44.696;10.622;2024-02-14T05:48:46;25.90;;;17.80;;
40637;SDS011;26336;44.696;10.622;2024-02-14T05:51:51;26.47;;;18.00;;
40637;SDS011;26336;44.696;10.622;2024-02-14T05:54:56;26.97;;;17.20;;
40637;SDS011;26336;44.696;10.622;2024-02-14T05:58:00;25.37;;;16.50;;
40637;SDS011;26336;44.696;10.622;2024-02-14T06:01:04;25.63;;;16.57;;
40637;SDS011;26336;44.696;10.622;2024-02-14T06:04:09;24.47;;;16.83;;
40637;SDS011;26336;44.696;10.622;2024-02-14T06:07:13;24.67;;;16.73;;
40637;SDS011;26336;44.696;10.622;2024-02-14T06:10:18;23.57;;;16.40;;
40637;SDS011;26336;44.696;10.622;2024-02-14T06:13:21;26.67;;;17.57;;
40637;SDS011;26336;44.696;10.622;2024-02-14T06:16:25;25.53;;;17.97;;
40637;SDS011;26336;44.696;10.622;2024-02-14T06:19:29;28.33;;;18.90;;
40637;SDS011;26336;44.696;10.622;2024-02-14T06:22:34;26.97;;;18.50;;
40637;SDS011;26336;44.696;10.622;2024-02-14T06:25:38;25.57;;;17.43;;
40637;SDS011;26336;44.696;10.622;2024-02-14T06:28:45;30.73;;;18.97;;
40637;SDS011;26336;44.696;10.622;2024-02-14T06:31:49;27.93;;;18.60;;
40637;SDS011;26336;44.696;10.622;2024-02-14T06:34:53;23.70;;;16.80;;
40637;SDS011;26336;44.696;10.622;2024-02-14T06:37:57;32.63;;;19.80;;
40637;SDS011;26336;44.696;10.622;2024-02-14T06:41:01;30.70;;;19.07;;
40637;SDS011;26336;44.696;10.622;2024-02-14T06:44:05;28.43;;;18.30;;
40637;SDS011;26336;44.696;10.622;2024-02-14T06:47:09;26.53;;;17.93;;
40637;SDS011;26336;44.696;10.622;2024-02-14T06:50:13;32.47;;;18.83;;
40637;SDS011;26336;44.696;10.622;2024-02-14T06:53:17;28.87;;;19.67;;
40637;SDS011;26336;44.696;10.622;2024-02-14T06:56:22;28.50;;;18.80;;
40637;SDS011;26336;44.696;10.622;2024-02-14T06:59:26;27.57;;;17.47;;
40637;SDS011;26336;44.696;10.622;2024-02-14T07:02:30;27.50;;;19.20;;
40637;SDS011;26336;44.696;10.622;2024-02-14T07:05:34;26.00;;;18.57;;
40637;SDS011;26336;44.696;10.622;2024-02-14T07:08:40;37.27;;;23.37;;
40637;SDS011;26336;44.696;10.622;2024-02-14T07:11:44;36.13;;;24.30;;
40637;SDS011;26336;44.696;10.622;2024-02-14T07:14:49;42.57;;;25.80;;
40637;SDS011;26336;44.696;10.622;2024-02-14T07:17:52;35.00;;;23.70;;
40637;SDS011;26336;44.696;10.622;2024-02-14T07:20:56;34.73;;;22.93;;
40637;SDS011;26336;44.696;10.622;2024-02-14T07:24:01;34.00;;;22.60;;
40637;SDS011;26336;44.696;10.622;2024-02-14T07:27:04;36.60;;;22.00;;
40637;SDS011;26336;44.696;10.622;2024-02-14T07:30:08;31.67;;;20.70;;
40637;SDS011;26336;44.696;10.622;2024-02-14T07:33:13;31.90;;;20.30;;
40637;SDS011;26336;44.696;10.622;2024-02-14T07:36:17;26.53;;;18.47;;
40637;SDS011;26336;44.696;10.622;2024-02-14T07:39:21;32.73;;;19.23;;
40637;SDS011;26336;44.696;10.622;2024-02-14T07:42:25;31.40;;;19.13;;
40637;SDS011;26336;44.696;10.622;2024-02-14T07:45:29;27.10;;;18.10;;
40637;SDS011;26336;44.696;10.622;2024-02-14T07:48:33;25.43;;;18.13;;
40637;SDS011;26336;44.696;10.622;2024-02-14T07:51:37;29.83;;;18.73;;
40637;SDS011;26336;44.696;10.622;2024-02-14T07:54:42;29.37;;;17.73;;
40637;SDS011;26336;44.696;10.622;2024-02-14T07:57:45;25.53;;;18.03;;
40637;SDS011;26336;44.696;10.622;2024-02-14T08:00:49;27.93;;;18.53;;
40637;SDS011;26336;44.696;10.622;2024-02-14T08:03:53;27.83;;;17.27;;
40637;SDS011;26336;44.696;10.622;2024-02-14T08:06:57;26.17;;;17.57;;
40637;SDS011;26336;44.696;10.622;2024-02-14T08:10:01;25.63;;;16.77;;
40637;SDS011;26336;44.696;10.622;2024-02-14T08:13:05;26.03;;;16.80;;
40637;SDS011;26336;44.696;10.622;2024-02-14T08:16:09;29.77;;;15.33;;
40637;SDS011;26336;44.696;10.622;2024-02-14T08:19:13;20.43;;;13.87;;
40637;SDS011;26336;44.696;10.622;2024-02-14T08:22:17;23.67;;;13.60;;
40637;SDS011;26336;44.696;10.622;2024-02-14T08:25:21;18.77;;;12.03;;
40637;SDS011;26336;44.696;10.622;2024-02-14T08:28:25;17.13;;;11.53;;
40637;SDS011;26336;44.696;10.622;2024-02-14T08:31:29;14.73;;;10.90;;
40637;SDS011;26336;44.696;10.622;2024-02-14T08:34:34;15.03;;;10.13;;
40637;SDS011;26336;44.696;10.622;2024-02-14T08:37:38;11.57;;;8.63;;
40637;SDS011;26336;44.696;10.622;2024-02-14T08:40:43;11.87;;;8.23;;
40637;SDS011;26336;44.696;10.622;2024-02-14T08:43:47;11.77;;;7.90;;
40637;SDS011;26336;44.696;10.622;2024-02-14T08:46:51;11.57;;;7.50;;
40637;SDS011;26336;44.696;10.622;2024-02-14T08:49:57;10.70;;;6.93;;
40637;SDS011;26336;44.696;10.622;2024-02-14T08:53:01;11.70;;;8.00;;
40637;SDS011;26336;44.696;10.622;2024-02-14T08:56:04;10.73;;;7.27;;
40637;SDS011;26336;44.696;10.622;2024-02-14T08:59:08;13.70;;;7.87;;
40637;SDS011;26336;44.696;10.622;2024-02-14T09:02:14;12.23;;;8.23;;
40637;SDS011;26336;44.696;10.622;2024-02-14T09:05:20;13.33;;;8.37;;
40637;SDS011;26336;44.696;10.622;2024-02-14T09:08:25;12.32;;;8.63;;
40637;SDS011;26336;44.696;10.622;2024-02-14T09:11:29;13.20;;;9.03;;
40637;SDS011;26336;44.696;10.622;2024-02-14T09:14:34;13.10;;;8.45;;
40637;SDS011;26336;44.696;10.622;2024-02-14T09:17:38;10.48;;;7.93;;
40637;SDS011;26336;44.696;10.622;2024-02-14T09:20:45;12.00;;;8.47;;
40637;SDS011;26336;44.696;10.622;2024-02-14T09:23:49;10.63;;;7.57;;
40637;SDS011;26336;44.696;10.622;2024-02-14T09:26:53;10.07;;;7.47;;
40637;SDS011;26336;44.696;10.622;2024-02-14T09:29:57;13.45;;;8.80;;
40637;SDS011;26336;44.696;10.622;2024-02-14T09:33:01;14.75;;;8.85;;
40637;SDS011;26336;44.696;10.622;2024-02-14T09:36:05;15.18;;;8.55;;
40637;SDS011;26336;44.696;10.622;2024-02-14T09:39:10;13.85;;;9.20;;
40637;SDS011;26336;44.696;10.622;2024-02-14T09:42:14;15.07;;;10.10;;
40637;SDS011;26336;44.696;10.622;2024-02-14T09:45:19;13.35;;;9.23;;
40637;SDS011;26336;44.696;10.622;2024-02-14T09:48:26;18.13;;;10.93;;
40637;SDS011;26336;44.696;10.622;2024-02-14T09:51:32;16.48;;;10.43;;
40637;SDS011;26336;44.696;10.622;2024-02-14T09:54:36;17.00;;;11.05;;
40637;SDS011;26336;44.696;10.622;2024-02-14T09:57:42;16.00;;;10.75;;
40637;SDS011;26336;44.696;10.622;2024-02-14T10:00:47;14.63;;;11.10;;
40637;SDS011;26336;44.696;10.622;2024-02-14T10:03:51;17.83;;;12.52;;
40637;SDS011;26336;44.696;10.622;2024-02-14T10:06:55;15.02;;;10.77;;
40637;SDS011;26336;44.696;10.622;2024-02-14T10:10:05;15.60;;;11.40;;
40637;SDS011;26336;44.696;10.622;2024-02-14T10:13:10;16.25;;;11.50;;
40637;SDS011;26336;44.696;10.622;2024-02-14T10:16:14;19.40;;;12.73;;
40637;SDS011;26336;44.696;10.622;2024-02-14T10:19:18;16.98;;;11.73;;
40637;SDS011;26336;44.696;10.622;2024-02-14T10:22:22;17.85;;;13.40;;
40637;SDS011;26336;44.696;10.622;2024-02-14T10:25:26;17.52;;;12.25;;
40637;SDS011;26336;44.696;10.622;2024-02-14T10:28:30;18.67;;;13.50;;
40637;SDS011;26336;44.696;10.622;2024-02-14T10:31:36;21.63;;;14.20;;
40637;SDS011;26336;44.696;10.622;2024-02-14T10:34:40;20.13;;;14.32;;
40637;SDS011;26336;44.696;10.622;2024-02-14T10:37:46;18.17;;;13.50;;
40637;SDS011;26336;44.696;10.622;2024-02-14T10:40:51;15.77;;;12.15;;
40637;SDS011;26336;44.696;10.622;2024-02-14T10:43:56;18.35;;;12.27;;
40637;SDS011;26336;44.696;10.622;2024-02-14T10:47:02;17.38;;;12.73;;
40637;SDS011;26336;44.696;10.622;2024-02-14T10:50:10;20.63;;;13.27;;
40637;SDS011;26336;44.696;10.622;2024-02-14T10:53:17;14.73;;;12.10;;
40637;SDS011;26336;44.696;10.622;2024-02-14T10:56:23;17.30;;;13.00;;
40637;SDS011;26336;44.696;10.622;2024-02-14T10:59:29;19.90;;;13.73;;
40637;SDS011;26336;44.696;10.622;2024-02-14T11:02:34;22.38;;;15.70;;
40637;SDS011;26336;44.696;10.622;2024-02-14T11:05:46;21.98;;;14.93;;
40637;SDS011;26336;44.696;10.622;2024-02-14T11:12:07;20.70;;;15.82;;
40637;SDS011;26336;44.696;10.622;2024-02-14T11:15:22;27.30;;;18.13;;
40637;SDS011;26336;44.696;10.622;2024-02-14T11:18:32;22.95;;;15.13;;
40637;SDS011;26336;44.696;10.622;2024-02-14T11:21:40;23.85;;;16.10;;
40637;SDS011;26336;44.696;10.622;2024-02-14T11:24:52;21.30;;;16.35;;
40637;SDS011;26336;44.696;10.622;2024-02-14T11:27:56;29.70;;;19.10;;
40637;SDS011;26336;44.696;10.622;2024-02-14T11:31:01;24.98;;;16.38;;
40637;SDS011;26336;44.696;10.622;2024-02-14T11:34:06;21.42;;;14.77;;
40637;SDS011;26336;44.696;10.622;2024-02-14T11:37:12;25.65;;;16.40;;
40637;SDS011;26336;44.696;10.622;2024-02-14T11:40:19;28.45;;;19.13;;
40637;SDS011;26336;44.696;10.622;2024-02-14T11:43:24;27.58;;;19.80;;
40637;SDS011;26336;44.696;10.622;2024-02-14T11:46:32;26.58;;;18.35;;
40637;SDS011;26336;44.696;10.622;2024-02-14T11:49:36;24.67;;;17.75;;
40637;SDS011;26336;44.696;10.622;2024-02-14T11:52:42;32.13;;;20.25;;
40637;SDS011;26336;44.696;10.622;2024-02-14T11:55:46;30.42;;;20.35;;
40637;SDS011;26336;44.696;10.622;2024-02-14T11:58:50;29.52;;;21.77;;
40637;SDS011;26336;44.696;10.622;2024-02-14T12:01:55;31.65;;;21.23;;
40637;SDS011;26336;44.696;10.622;2024-02-14T12:05:01;28.02;;;20.50;;
40637;SDS011;26336;44.696;10.622;2024-02-14T12:08:08;29.70;;;20.33;;
40637;SDS011;26336;44.696;10.622;2024-02-14T12:11:13;31.40;;;20.33;;
40637;SDS011;26336;44.696;10.622;2024-02-14T12:14:17;24.33;;;18.58;;
40637;SDS011;26336;44.696;10.622;2024-02-14T12:17:22;28.75;;;20.30;;
40637;SDS011;26336;44.696;10.622;2024-02-14T12:20:26;23.85;;;16.60;;
40637;SDS011;26336;44.696;10.622;2024-02-14T12:23:30;27.17;;;20.60;;
40637;SDS011;26336;44.696;10.622;2024-02-14T12:26:35;31.50;;;19.48;;
40637;SDS011;26336;44.696;10.622;2024-02-14T12:29:39;27.67;;;18.77;;
40637;SDS011;26336;44.696;10.622;2024-02-14T12:32:43;25.92;;;18.13;;
40637;SDS011;26336;44.696;10.622;2024-02-14T12:35:48;29.65;;;19.13;;
40637;SDS011;26336;44.696;10.622;2024-02-14T12:38:52;28.83;;;16.92;;
40637;SDS011;26336;44.696;10.622;2024-02-14T12:41:57;28.13;;;17.50;;
40637;SDS011;26336;44.696;10.622;2024-02-14T12:45:02;20.55;;;14.07;;
40637;SDS011;26336;44.696;10.622;2024-02-14T12:48:06;23.90;;;14.68;;
40637;SDS011;26336;44.696;10.622;2024-02-14T12:51:15;20.48;;;13.40;;
40637;SDS011;26336;44.696;10.622;2024-02-14T12:54:21;17.27;;;11.25;;
40637;SDS011;26336;44.696;10.622;2024-02-14T12:57:25;15.73;;;9.52;;
40637;SDS011;26336;44.696;10.622;2024-02-14T13:00:29;15.82;;;10.55;;
40637;SDS011;26336;44.696;10.622;2024-02-14T13:03:35;15.05;;;10.60;;
40637;SDS011;26336;44.696;10.622;2024-02-14T13:06:39;19.05;;;11.77;;
40637;SDS011;26336;44.696;10.622;2024-02-14T13:09:43;17.20;;;10.68;;
40637;SDS011;26336;44.696;10.622;2024-02-14T13:12:47;17.33;;;10.02;;
40637;SDS011;26336;44.696;10.622;2024-02-14T13:15:51;20.02;;;10.20;;
40637;SDS011;26336;44.696;10.622;2024-02-14T13:18:55;24.77;;;10.50;;
40637;SDS011;26336;44.696;10.622;2024-02-14T13:21:59;15.30;;;10.45;;
40637;SDS011;26336;44.696;10.622;2024-02-14T13:25:03;16.20;;;10.68;;
40637;SDS011;26336;44.696;10.622;2024-02-14T13:28:08;17.83;;;10.75;;
40637;SDS011;26336;44.696;10.622;2024-02-14T13:31:12;16.27;;;10.70;;
40637;SDS011;26336;44.696;10.622;2024-02-14T13:34:16;13.60;;;9.55;;
40637;SDS011;26336;44.696;10.622;2024-02-14T13:37:23;17.00;;;11.05;;
40637;SDS011;26336;44.696;10.622;2024-02-14T13:40:27;19.42;;;11.20;;
40637;SDS011;26336;44.696;10.622;2024-02-14T13:43:31;18.92;;;11.30;;
40637;SDS011;26336;44.696;10.622;2024-02-14T13:46:36;16.00;;;11.15;;
40637;SDS011;26336;44.696;10.622;2024-02-14T13:49:40;15.57;;;10.90;;
40637;SDS011;26336;44.696;10.622;2024-02-14T13:52:44;18.40;;;10.57;;
40637;SDS011;26336;44.696;10.622;2024-02-14T13:55:48;15.02;;;11.07;;
40637;SDS011;26336;44.696;10.622;2024-02-14T13:58:54;14.68;;;10.82;;
40637;SDS011;26336;44.696;10.622;2024-02-14T14:01:58;16.95;;;12.45;;
40637;SDS011;26336;44.696;10.622;2024-02-14T14:05:03;18.95;;;13.18;;
40637;SDS011;26336;44.696;10.622;2024-02-14T14:08:08;18.83;;;13.65;;
40637;SDS011;26336;44.696;10.622;2024-02-14T14:11:12;20.42;;;14.02;;
40637;SDS011;26336;44.696;10.622;2024-02-14T14:14:16;17.70;;;13.48;;
40637;SDS011;26336;44.696;10.622;2024-02-14T14:17:22;19.42;;;13.98;;
40637;SDS011;26336;44.696;10.622;2024-02-14T14:20:26;18.70;;;14.15;;
40637;SDS011;26336;44.696;10.622;2024-02-14T14:23:31;16.42;;;12.93;;
40637;SDS011;26336;44.696;10.622;2024-02-14T14:26:36;18.75;;;13.25;;
40637;SDS011;26336;44.696;10.622;2024-02-14T14:29:41;23.52;;;16.85;;
40637;SDS011;26336;44.696;10.622;2024-02-14T14:32:45;19.45;;;14.93;;
40637;SDS011;26336;44.696;10.622;2024-02-14T14:35:49;21.08;;;16.20;;
40637;SDS011;26336;44.696;10.622;2024-02-14T14:38:56;21.95;;;15.57;;
40637;SDS011;26336;44.696;10.622;2024-02-14T14:41:59;23.33;;;17.23;;
40637;SDS011;26336;44.696;10.622;2024-02-14T14:45:03;18.75;;;15.13;;
40637;SDS011;26336;44.696;10.622;2024-02-14T14:48:08;21.42;;;16.42;;
40637;SDS011;26336;44.696;10.622;2024-02-14T14:51:12;25.38;;;17.38;;
40637;SDS011;26336;44.696;10.622;2024-02-14T14:54:16;26.13;;;17.90;;
40637;SDS011;26336;44.696;10.622;2024-02-14T14:57:21;22.52;;;17.27;;
40637;SDS011;26336;44.696;10.622;2024-02-14T15:00:26;26.92;;;19.40;;
40637;SDS011;26336;44.696;10.622;2024-02-14T15:03:30;21.60;;;16.67;;
40637;SDS011;26336;44.696;10.622;2024-02-14T15:06:35;25.05;;;16.58;;
40637;SDS011;26336;44.696;10.622;2024-02-14T15:09:39;17.65;;;12.18;;
40637;SDS011;26336;44.696;10.622;2024-02-14T15:12:45;25.23;;;17.40;;
40637;SDS011;26336;44.696;10.622;2024-02-14T15:15:49;25.30;;;18.58;;
40637;SDS011;26336;44.696;10.622;2024-02-14T15:18:53;24.85;;;18.80;;
40637;SDS011;26336;44.696;10.622;2024-02-14T15:21:57;23.95;;;17.60;;
40637;SDS011;26336;44.696;10.622;2024-02-14T15:25:06;26.98;;;19.20;;
40637;SDS011;26336;44.696;10.622;2024-02-14T15:28:11;25.67;;;18.05;;
40637;SDS011;26336;44.696;10.622;2024-02-14T15:31:25;21.63;;;17.05;;
40637;SDS011;26336;44.696;10.622;2024-02-14T15:34:47;29.45;;;18.00;;
40637;SDS011;26336;44.696;10.622;2024-02-14T15:37:52;22.48;;;17.25;;
40637;SDS011;26336;44.696;10.622;2024-02-14T15:40:57;27.23;;;18.55;;
40637;SDS011;26336;44.696;10.622;2024-02-14T15:44:03;28.75;;;17.88;;
40637;SDS011;26336;44.696;10.622;2024-02-14T15:47:09;25.35;;;18.30;;
40637;SDS011;26336;44.696;10.622;2024-02-14T15:50:14;27.20;;;18.30;;
40637;SDS011;26336;44.696;10.622;2024-02-14T15:53:17;22.92;;;17.25;;
40637;SDS011;26336;44.696;10.622;2024-02-14T15:56:22;26.73;;;18.17;;
40637;SDS011;26336;44.696;10.622;2024-02-14T15:59:26;26.65;;;18.33;;
40637;SDS011;26336;44.696;10.622;2024-02-14T16:02:34;25.05;;;18.10;;
40637;SDS011;26336;44.696;10.622;2024-02-14T16:05:38;21.88;;;17.80;;
40637;SDS011;26336;44.696;10.622;2024-02-14T16:08:42;24.75;;;17.83;;
40637;SDS011;26336;44.696;10.622;2024-02-14T16:11:46;25.13;;;17.33;;
40637;SDS011;26336;44.696;10.622;2024-02-14T16:14:50;23.52;;;18.98;;
40637;SDS011;26336;44.696;10.622;2024-02-14T16:17:54;24.85;;;18.52;;
40637;SDS011;26336;44.696;10.622;2024-02-14T16:20:58;25.00;;;18.98;;
40637;SDS011;26336;44.696;10.622;2024-02-14T16:24:02;34.40;;;22.63;;
40637;SDS011;26336;44.696;10.622;2024-02-14T16:27:06;27.40;;;19.55;;
40637;SDS011;26336;44.696;10.622;2024-02-14T16:30:10;30.70;;;20.95;;
40637;SDS011;26336;44.696;10.622;2024-02-14T16:33:14;25.58;;;18.38;;
40637;SDS011;26336;44.696;10.622;2024-02-14T16:36:18;28.00;;;19.23;;
40637;SDS011;26336;44.696;10.622;2024-02-14T16:39:22;25.13;;;17.63;;
40637;SDS011;26336;44.696;10.622;2024-02-14T16:42:27;27.45;;;19.60;;
40637;SDS011;26336;44.696;10.622;2024-02-14T16:45:31;26.63;;;18.65;;
40637;SDS011;26336;44.696;10.622;2024-02-14T16:48:35;27.73;;;18.48;;
40637;SDS011;26336;44.696;10.622;2024-02-14T16:51:39;28.65;;;18.58;;
40637;SDS011;26336;44.696;10.622;2024-02-14T16:54:43;24.70;;;18.15;;
40637;SDS011;26336;44.696;10.622;2024-02-14T16:57:47;29.48;;;19.38;;
40637;SDS011;26336;44.696;10.622;2024-02-14T17:00:51;28.02;;;19.73;;
40637;SDS011;26336;44.696;10.622;2024-02-14T17:03:55;30.08;;;19.90;;
40637;SDS011;26336;44.696;10.622;2024-02-14T17:07:00;29.05;;;22.35;;
40637;SDS011;26336;44.696;10.622;2024-02-14T17:10:04;27.63;;;19.70;;
40637;SDS011;26336;44.696;10.622;2024-02-14T17:13:09;29.92;;;20.92;;
40637;SDS011;26336;44.696;10.622;2024-02-14T17:16:13;31.35;;;22.02;;
40637;SDS011;26336;44.696;10.622;2024-02-14T17:19:18;31.52;;;21.92;;
40637;SDS011;26336;44.696;10.622;2024-02-14T17:22:22;29.90;;;20.83;;
40637;SDS011;26336;44.696;10.622;2024-02-14T17:25:26;32.40;;;21.27;;
40637;SDS011;26336;44.696;10.622;2024-02-14T17:28:31;29.98;;;20.85;;
40637;SDS011;26336;44.696;10.622;2024-02-14T17:31:35;29.10;;;20.63;;
40637;SDS011;26336;44.696;10.622;2024-02-14T17:34:40;31.50;;;20.15;;
40637;SDS011;26336;44.696;10.622;2024-02-14T17:37:44;32.83;;;21.50;;
40637;SDS011;26336;44.696;10.622;2024-02-14T17:40:48;30.17;;;19.95;;
40637;SDS011;26336;44.696;10.622;2024-02-14T17:43:52;33.20;;;20.55;;
40637;SDS011;26336;44.696;10.622;2024-02-14T17:46:57;28.13;;;19.92;;
40637;SDS011;26336;44.696;10.622;2024-02-14T17:50:02;34.63;;;21.83;;
40637;SDS011;26336;44.696;10.622;2024-02-14T17:53:07;30.73;;;20.88;;
40637;SDS011;26336;44.696;10.622;2024-02-14T17:56:11;29.90;;;21.15;;